Time;durP1;ratioP1;P1;durP2;ratioP2;P2;SDS_P1;SDS_P2;PMS_P1;PMS_P2;Temp;Humidity;BMP_temperature;BMP_pressure;BME280_temperature;BME280_humidity;BME280_pressure;Samples;Min_cycle;Max_cycle;Signal;HPM_P1;HPM_P2
2021/09/11 00:01:49;;;;;;;;;;;;;;;14.94;100.00;100722.81;5094445;28;19946;-71
2021/09/11 00:04:16;;;;;;;;;;;;;;;14.92;100.00;100716.66;5094547;28;19955;-71
2021/09/11 00:06:42;;;;;;;;;;;;;;;14.86;100.00;100716.25;5094408;28;20026;-71
2021/09/11 00:09:08;;;;;;;;;;;;;;;14.84;100.00;100723.72;5093862;28;19928;-71
2021/09/11 00:11:34;;;;;;;;;;;;;;;14.84;100.00;100728.34;5094440;28;20023;-71
2021/09/11 00:14:01;;;;;;;;;;;;;;;14.82;100.00;100724.91;5094360;28;20474;-71
2021/09/11 00:16:27;;;;;;;;;;;;;;;14.81;100.00;100734.13;5093864;28;19975;-71
2021/09/11 00:18:55;;;;;;;;;;;;;;;14.80;100.00;100722.31;5094052;28;19937;-71
2021/09/11 00:21:21;;;;;;;;;;;;;;;14.78;100.00;100723.47;5093907;28;19932;-71
2021/09/11 00:23:47;;;;;;;;;;;;;;;14.76;100.00;100729.09;5094502;28;20013;-71
2021/09/11 00:26:14;;;;;;;;;;;;;;;14.79;100.00;100733.41;5075827;28;20488;-71
2021/09/11 00:28:40;;;;;;;;;;;;;;;14.76;100.00;100729.09;5093447;28;19970;-71
2021/09/11 00:31:07;;;;;;;;;;;;;;;14.78;100.00;100724.34;5094135;28;19967;-71
2021/09/11 00:33:34;;;;;;;;;;;;;;;14.75;100.00;100724.63;5093771;28;20103;-71
2021/09/11 00:36:01;;;;;;;;;;;;;;;14.73;100.00;100726.69;5075952;28;19924;-71
2021/09/11 00:38:27;;;;;;;;;;;;;;;14.72;100.00;100720.38;5093577;28;20021;-71
2021/09/11 00:40:54;;;;;;;;;;;;;;;14.69;100.00;100725.25;5093864;28;20039;-71
2021/09/11 00:43:21;;;;;;;;;;;;;;;14.67;100.00;100730.00;5093779;28;20374;-71
2021/09/11 00:45:47;;;;;;;;;;;;;;;14.63;100.00;100721.28;5092984;28;19952;-71
2021/09/11 00:48:13;;;;;;;;;;;;;;;14.63;100.00;100725.81;5075562;28;19924;-71
2021/09/11 00:50:39;;;;;;;;;;;;;;;14.60;100.00;100720.69;5093562;28;20015;-71
2021/09/11 00:53:09;;;;;;;;;;;;;;;14.60;100.00;100721.53;5093676;28;20283;-71
2021/09/11 00:55:36;;;;;;;;;;;;;;;14.59;100.00;100719.84;5093379;28;20030;-71
2021/09/11 00:58:03;;;;;;;;;;;;;;;14.55;100.00;100729.31;5093420;28;20034;-71
2021/09/11 01:00:29;;;;;;;;;;;;;;;14.49;100.00;100719.84;5093502;28;20146;-71
2021/09/11 01:02:56;;;;;;;;;;;;;;;14.51;100.00;100726.03;5093234;28;19935;-71
2021/09/11 01:05:22;;;;;;;;;;;;;;;14.46;100.00;100719.31;5093117;28;20026;-71
2021/09/11 01:07:49;;;;;;;;;;;;;;;14.48;100.00;100725.47;5092919;28;20015;-71
2021/09/11 01:10:17;;;;;;;;;;;;;;;14.49;100.00;100736.25;5093341;28;19946;-71
2021/09/11 01:12:44;;;;;;;;;;;;;;;14.42;100.00;100729.66;5092908;28;20458;-72
2021/09/11 01:15:11;;;;;;;;;;;;;;;14.42;100.00;100732.41;5093133;28;20027;-71
2021/09/11 01:17:40;;;;;;;;;;;;;;;14.42;100.00;100735.13;5093032;28;20014;-71
2021/09/11 01:20:07;;;;;;;;;;;;;;;14.42;100.00;100737.84;5092961;28;20013;-71
2021/09/11 01:22:33;;;;;;;;;;;;;;;14.45;100.00;100740.28;5093019;28;20026;-71
2021/09/11 01:25:01;;;;;;;;;;;;;;;14.45;100.00;100743.00;5092684;28;19989;-71
2021/09/11 01:27:28;;;;;;;;;;;;;;;14.46;100.00;100744.75;5092842;28;19924;-71
2021/09/11 01:29:56;;;;;;;;;;;;;;;14.48;100.00;100745.44;5092683;28;19924;-71
2021/09/11 01:32:22;;;;;;;;;;;;;;;14.46;100.00;100749.34;5092924;28;19951;-71
2021/09/11 01:34:49;;;;;;;;;;;;;;;14.45;100.00;100751.22;5092797;28;20366;-71
2021/09/11 01:37:16;;;;;;;;;;;;;;;14.47;100.00;100746.47;5092533;28;20027;-71
2021/09/11 01:39:46;;;;;;;;;;;;;;;14.43;100.00;100745.06;5092095;28;19970;-71
2021/09/11 01:42:14;;;;;;;;;;;;;;;14.44;100.00;100744.00;5092326;28;19932;-71
2021/09/11 01:44:44;;;;;;;;;;;;;;;14.43;100.00;100747.78;5092725;28;20018;-71
2021/09/11 01:47:10;;;;;;;;;;;;;;;14.40;100.00;100739.88;5092418;28;20018;-71
2021/09/11 01:49:37;;;;;;;;;;;;;;;14.42;100.00;100747.91;5092858;28;20093;-72
2021/09/11 01:52:03;;;;;;;;;;;;;;;14.37;100.00;100742.91;5092535;28;19959;-71
2021/09/11 01:54:29;;;;;;;;;;;;;;;14.32;100.00;100745.22;5092477;28;19967;-71
2021/09/11 01:56:56;;;;;;;;;;;;;;;14.28;100.00;100746.53;5091963;28;19930;-71
2021/09/11 01:59:24;;;;;;;;;;;;;;;14.24;100.00;100743.22;5091708;28;19985;-71
2021/09/11 02:01:50;;;;;;;;;;;;;;;14.22;100.00;100743.38;5092228;28;19931;-71
2021/09/11 02:04:16;;;;;;;;;;;;;;;14.23;100.00;100745.09;5092384;28;20023;-71
2021/09/11 02:06:43;;;;;;;;;;;;;;;14.29;100.00;100740.06;5092025;28;20272;-71
2021/09/11 02:09:11;;;;;;;;;;;;;;;14.31;100.00;100743.50;5073859;28;20357;-70
2021/09/11 02:11:37;;;;;;;;;;;;;;;14.38;100.00;100742.75;5091940;28;19924;-70
2021/09/11 02:14:03;;;;;;;;;;;;;;;14.41;100.00;100744.31;5092086;28;20419;-71
2021/09/11 02:16:31;;;;;;;;;;;;;;;14.46;100.00;100739.28;5091772;28;20022;-71
2021/09/11 02:18:57;;;;;;;;;;;;;;;14.53;100.00;100740.38;5091617;28;19963;-71
2021/09/11 02:21:24;;;;;;;;;;;;;;;14.56;100.00;100747.41;5092019;28;20027;-71
2021/09/11 02:23:50;;;;;;;;;;;;;;;14.61;100.00;100747.00;5091249;28;19955;-71
2021/09/11 02:26:16;;;;;;;;;;;;;;;14.62;100.00;100745.94;5091900;28;20023;-71
2021/09/11 02:28:43;;;;;;;;;;;;;;;14.67;100.00;100755.47;5091433;28;20019;-71
2021/09/11 02:31:10;;;;;;;;;;;;;;;14.87;100.00;100755.34;5091873;28;19924;-70
2021/09/11 02:33:37;;;;;;;;;;;;;;;14.97;100.00;100758.91;5091316;28;19924;-71
2021/09/11 02:36:04;;;;;;;;;;;;;;;15.06;100.00;100754.41;5091456;28;19963;-70
2021/09/11 02:38:30;;;;;;;;;;;;;;;15.11;100.00;100752.03;5091511;28;19970;-71
2021/09/11 02:40:56;;;;;;;;;;;;;;;15.10;100.00;100752.19;5091220;28;19963;-71
2021/09/11 02:43:23;;;;;;;;;;;;;;;15.04;100.00;100750.94;5091687;28;20371;-70
2021/09/11 02:45:49;;;;;;;;;;;;;;;15.01;100.00;100762.19;5091354;28;19928;-70
2021/09/11 02:48:15;;;;;;;;;;;;;;;14.99;100.00;100758.75;5091450;28;20027;-70
2021/09/11 02:50:43;;;;;;;;;;;;;;;14.96;100.00;100751.72;5090217;28;19952;-70
2021/09/11 02:53:10;;;;;;;;;;;;;;;14.89;100.00;100756.06;5091474;28;20359;-71
2021/09/11 02:55:36;;;;;;;;;;;;;;;14.81;100.00;100753.25;5091408;28;19924;-70
2021/09/11 02:58:02;;;;;;;;;;;;;;;14.73;100.00;100754.00;5090906;28;20028;-71
2021/09/11 03:00:29;;;;;;;;;;;;;;;14.62;100.00;100755.03;5091477;28;20019;-71
2021/09/11 03:02:55;;;;;;;;;;;;;;;14.56;100.00;100756.50;5091019;28;20034;-71
2021/09/11 03:05:21;;;;;;;;;;;;;;;14.49;100.00;100752.63;5091345;28;20019;-71
2021/09/11 03:07:49;;;;;;;;;;;;;;;14.44;100.00;100757.66;5090935;28;19928;-71
2021/09/11 03:10:15;;;;;;;;;;;;;;;14.42;100.00;100762.44;5090953;28;19963;-70
2021/09/11 03:12:41;;;;;;;;;;;;;;;14.39;100.00;100759.97;5091282;28;19956;-71
2021/09/11 03:15:09;;;;;;;;;;;;;;;14.37;100.00;100754.69;5091021;28;20027;-71
2021/09/11 03:17:35;;;;;;;;;;;;;;;14.35;100.00;100753.09;5090985;28;20011;-71
2021/09/11 03:20:01;;;;;;;;;;;;;;;14.35;100.00;100750.38;5090934;28;20019;-71
2021/09/11 03:22:27;;;;;;;;;;;;;;;14.34;100.00;100749.53;5091269;28;20056;-70
2021/09/11 03:24:55;;;;;;;;;;;;;;;14.29;100.00;100751.84;5091041;28;20027;-71
2021/09/11 03:27:21;;;;;;;;;;;;;;;14.24;100.00;100756.88;5090654;28;19959;-70
2021/09/11 03:29:48;;;;;;;;;;;;;;;14.20;100.00;100750.00;5091206;28;19923;-70
2021/09/11 03:32:14;;;;;;;;;;;;;;;14.16;100.00;100752.19;5090917;28;20011;-70
2021/09/11 03:34:40;;;;;;;;;;;;;;;14.16;100.00;100749.44;5090987;28;20032;-70
2021/09/11 03:37:06;;;;;;;;;;;;;;;14.18;100.00;100749.28;5090605;28;19967;-70
2021/09/11 03:39:33;;;;;;;;;;;;;;;14.22;100.00;100753.44;5091399;28;20030;-71
2021/09/11 03:42:00;;;;;;;;;;;;;;;14.22;100.00;100750.72;5090803;28;20027;-71
2021/09/11 03:44:27;;;;;;;;;;;;;;;14.24;100.00;100748.69;5090978;28;20163;-71
2021/09/11 03:46:53;;;;;;;;;;;;;;;14.26;100.00;100748.53;5090370;28;20416;-70
2021/09/11 03:49:19;;;;;;;;;;;;;;;14.21;100.00;100749.84;5090657;28;19977;-70
2021/09/11 03:51:45;;;;;;;;;;;;;;;14.19;100.00;100751.00;5090856;28;19964;-70
2021/09/11 03:54:12;;;;;;;;;;;;;;;14.17;100.00;100748.41;5090745;28;20380;-71
2021/09/11 03:56:39;;;;;;;;;;;;;;;14.16;100.00;100743.09;5090878;28;20034;-71
2021/09/11 03:59:07;;;;;;;;;;;;;;;14.12;100.00;100748.00;5090640;28;19967;-71
2021/09/11 04:01:33;;;;;;;;;;;;;;;14.14;100.00;100751.44;5090643;28;20359;-70
2021/09/11 04:03:59;;;;;;;;;;;;;;;14.13;100.00;100765.25;5094908;28;20197;-70
2021/09/11 04:06:26;;;;;;;;;;;;;;;14.21;100.00;100754.44;5094322;28;20023;-70
2021/09/11 04:08:52;;;;;;;;;;;;;;;14.23;100.00;100755.19;5075901;28;20027;-71
2021/09/11 04:11:18;;;;;;;;;;;;;;;14.21;100.00;100755.28;5094209;28;19982;-71
2021/09/11 04:13:44;;;;;;;;;;;;;;;14.20;100.00;100756.31;5094398;28;19959;-71
2021/09/11 04:16:12;;;;;;;;;;;;;;;14.29;100.00;100751.00;5094489;28;20011;-71
2021/09/11 04:18:38;;;;;;;;;;;;;;;14.37;100.00;100757.41;5093953;28;20475;-70
2021/09/11 04:21:04;;;;;;;;;;;;;;;14.42;100.00;100759.72;5094263;28;20022;-71
2021/09/11 04:23:31;;;;;;;;;;;;;;;14.36;100.00;100760.28;5094120;28;20026;-71
2021/09/11 04:25:57;;;;;;;;;;;;;;;14.39;100.00;100758.13;5093895;28;19963;-70
2021/09/11 04:28:23;;;;;;;;;;;;;;;14.41;100.00;100763.44;5093335;28;20482;-70
2021/09/11 04:30:49;;;;;;;;;;;;;;;14.40;100.00;100764.44;5093951;28;19924;-70
2021/09/11 04:33:17;;;;;;;;;;;;;;;14.32;100.00;100753.41;5093956;28;19928;-70
2021/09/11 04:35:43;;;;;;;;;;;;;;;14.20;100.00;100753.59;5093754;28;20014;-70
2021/09/11 04:38:10;;;;;;;;;;;;;;;14.10;100.00;100750.03;5093741;28;20387;-70
2021/09/11 04:40:36;;;;;;;;;;;;;;;14.05;100.00;100771.44;5093557;28;20051;-71
2021/09/11 04:43:03;;;;;;;;;;;;;;;14.03;100.00;100767.97;5093689;28;20015;-70
2021/09/11 04:45:29;;;;;;;;;;;;;;;14.04;100.00;100775.16;5093752;28;19931;-70
2021/09/11 04:47:56;;;;;;;;;;;;;;;14.08;100.00;100771.13;5093196;28;19967;-68
2021/09/11 04:50:23;;;;;;;;;;;;;;;14.15;100.00;100772.28;5075832;28;19967;-68
2021/09/11 04:52:49;;;;;;;;;;;;;;;14.19;100.00;100787.34;5093435;28;19935;-65
2021/09/11 04:55:16;;;;;;;;;;;;;;;14.29;100.00;100770.94;5093613;28;19964;-66
2021/09/11 04:57:43;;;;;;;;;;;;;;;14.39;100.00;100781.81;5093347;28;20044;-65
2021/09/11 05:00:09;;;;;;;;;;;;;;;14.53;100.00;100789.56;5075491;28;20006;-66
2021/09/11 05:02:36;;;;;;;;;;;;;;;14.71;100.00;100784.22;5093272;28;20034;-64
2021/09/11 05:05:03;;;;;;;;;;;;;;;14.88;100.00;100790.75;5092716;28;20019;-66
2021/09/11 05:07:30;;;;;;;;;;;;;;;15.11;100.00;100793.06;5075087;28;19988;-66
2021/09/11 05:09:57;;;;;;;;;;;;;;;15.30;100.00;100791.22;5092957;28;20022;-66
2021/09/11 05:12:23;;;;;;;;;;;;;;;15.48;100.00;100800.31;5093280;28;20368;-66
2021/09/11 05:14:49;;;;;;;;;;;;;;;15.68;100.00;100800.16;5092096;28;20020;-70
2021/09/11 05:17:15;;;;;;;;;;;;;;;15.84;100.00;100797.59;5093063;28;20313;-71
2021/09/11 05:19:42;;;;;;;;;;;;;;;16.01;100.00;100793.13;5093140;28;19986;-70
2021/09/11 05:22:08;;;;;;;;;;;;;;;16.29;100.00;100789.38;5092886;28;20362;-70
2021/09/11 05:24:36;;;;;;;;;;;;;;;16.62;100.00;100800.56;5092859;28;20014;-70
2021/09/11 05:27:02;;;;;;;;;;;;;;;16.96;100.00;100802.50;5074611;28;20011;-71
2021/09/11 05:29:29;;;;;;;;;;;;;;;17.31;100.00;100804.16;5092926;28;19967;-71
2021/09/11 05:31:55;;;;;;;;;;;;;;;17.55;100.00;100799.75;5092815;28;20304;-71
2021/09/11 05:34:21;;;;;;;;;;;;;;;17.76;100.00;100809.38;5092708;28;19964;-71
2021/09/11 05:36:49;;;;;;;;;;;;;;;18.03;100.00;100797.25;5092405;28;20011;-71
2021/09/11 05:39:16;;;;;;;;;;;;;;;18.15;100.00;100804.13;5074572;28;19924;-70
2021/09/11 05:41:43;;;;;;;;;;;;;;;18.15;100.00;100808.75;5092763;28;20039;-70
2021/09/11 05:44:10;;;;;;;;;;;;;;;18.01;100.00;100802.94;5073890;28;20023;-71
2021/09/11 05:46:36;;;;;;;;;;;;;;;17.89;100.00;100816.09;5092544;28;19970;-71
2021/09/11 05:49:02;;;;;;;;;;;;;;;17.85;100.00;100809.25;5092262;28;19963;-71
2021/09/11 05:51:28;;;;;;;;;;;;;;;17.76;100.00;100810.25;5092277;28;20018;-70
2021/09/11 05:53:55;;;;;;;;;;;;;;;17.69;100.00;100815.56;5092658;28;20015;-71
2021/09/11 05:56:21;;;;;;;;;;;;;;;17.69;100.00;100818.31;5092132;28;19924;-70
2021/09/11 05:58:49;;;;;;;;;;;;;;;17.69;100.00;100821.06;5091960;28;19989;-71
2021/09/11 06:01:15;;;;;;;;;;;;;;;17.67;100.00;100822.25;5092165;28;20368;-70
2021/09/11 06:03:41;;;;;;;;;;;;;;;17.70;100.00;100822.78;5092062;28;20039;-71
2021/09/11 06:06:07;;;;;;;;;;;;;;;17.74;100.00;100828.78;5092092;28;20027;-71
2021/09/11 06:08:34;;;;;;;;;;;;;;;17.76;100.00;100832.22;5091707;28;19931;-71
2021/09/11 06:11:00;;;;;;;;;;;;;;;17.81;100.00;100834.44;5091981;28;19943;-71
2021/09/11 06:13:26;;;;;;;;;;;;;;;17.80;100.00;100833.59;5073898;28;19928;-71
2021/09/11 06:15:54;;;;;;;;;;;;;;;17.87;100.00;100850.25;5073885;28;19947;-71
2021/09/11 06:18:20;;;;;;;;;;;;;;;17.98;100.00;100846.34;5073540;28;20014;-71
2021/09/11 06:20:46;;;;;;;;;;;;;;;18.00;100.00;100849.78;5091687;28;19935;-71
2021/09/11 06:23:13;;;;;;;;;;;;;;;18.03;100.00;100843.94;5091691;28;20459;-71
2021/09/11 06:25:39;;;;;;;;;;;;;;;18.11;100.00;100856.84;5091690;28;20010;-71
2021/09/11 06:28:05;;;;;;;;;;;;;;;18.14;100.00;100861.97;5091666;28;19966;-71
2021/09/11 06:30:32;;;;;;;;;;;;;;;18.15;100.00;100860.94;5091708;28;20026;-66
2021/09/11 06:32:59;;;;;;;;;;;;;;;18.14;100.00;100856.47;5091545;28;20443;-66
2021/09/11 06:35:26;;;;;;;;;;;;;;;18.12;100.00;100859.41;5091459;28;19924;-66
2021/09/11 06:37:53;;;;;;;;;;;;;;;18.12;100.00;100864.91;5090997;28;19967;-66
2021/09/11 06:40:20;;;;;;;;;;;;;;;18.10;100.00;100868.84;5091371;28;19924;-66
2021/09/11 06:42:47;;;;;;;;;;;;;;;18.12;100.00;100864.03;5091079;28;19924;-66
2021/09/11 06:45:13;;;;;;;;;;;;;;;18.13;100.00;100872.13;5091524;28;19928;-66
2021/09/11 06:47:39;;;;;;;;;;;;;;;18.11;100.00;100871.41;5091284;28;20454;-66
2021/09/11 06:50:08;;;;;;;;;;;;;;;18.11;100.00;100876.91;5091571;28;19963;-66
2021/09/11 06:52:34;;;;;;;;;;;;;;;18.14;100.00;100882.06;5091387;28;19977;-66
2021/09/11 06:55:00;;;;;;;;;;;;;;;18.11;100.00;100876.91;5091274;28;20022;-66
2021/09/11 06:57:26;;;;;;;;;;;;;;;18.12;100.00;100875.00;5091422;28;20449;-66
2021/09/11 06:59:53;;;;;;;;;;;;;;;18.11;100.00;100873.31;5090941;28;20203;-66
2021/09/11 07:02:19;;;;;;;;;;;;;;;18.17;100.00;100876.22;5091348;28;20019;-66
2021/09/11 07:04:45;;;;;;;;;;;;;;;18.28;100.00;100875.03;5090947;28;20022;-66
2021/09/11 07:07:13;;;;;;;;;;;;;;;18.39;100.00;100868.31;5091061;28;20432;-66
2021/09/11 07:09:39;;;;;;;;;;;;;;;18.43;100.00;100871.59;5091201;28;20319;-66
2021/09/11 07:12:06;;;;;;;;;;;;;;;18.44;100.00;100874.16;5091054;28;20137;-66
2021/09/11 07:14:32;;;;;;;;;;;;;;;18.48;100.00;100878.28;5091227;28;20455;-67
2021/09/11 07:16:58;;;;;;;;;;;;;;;18.56;100.00;100878.28;5090552;28;20046;-66
2021/09/11 07:19:24;;;;;;;;;;;;;;;18.61;100.00;100885.97;5091092;28;20026;-66
2021/09/11 07:21:51;;;;;;;;;;;;;;;18.72;100.00;100876.53;5090789;28;19930;-66
2021/09/11 07:24:18;;;;;;;;;;;;;;;18.83;100.00;100875.31;5091115;28;19924;-66
2021/09/11 07:26:45;;;;;;;;;;;;;;;18.99;100.00;100879.94;5091151;28;20497;-66
2021/09/11 07:29:11;;;;;;;;;;;;;;;19.20;100.00;100874.72;5090820;28;20019;-66
2021/09/11 07:31:37;;;;;;;;;;;;;;;19.46;100.00;100876.31;5091205;28;19924;-66
2021/09/11 07:34:03;;;;;;;;;;;;;;;19.84;100.00;100868.22;5090626;28;20422;-66
2021/09/11 07:36:30;;;;;;;;;;;;;;;20.49;100.00;100854.94;5090970;28;20415;-66
2021/09/11 07:38:56;;;;;;;;;;;;;;;20.99;100.00;100844.28;5094538;28;20007;-66
2021/09/11 07:41:24;;;;;;;;;;;;;;;21.50;100.00;100843.47;5095090;28;20031;-66
2021/09/11 07:43:50;;;;;;;;;;;;;;;21.61;100.00;100833.84;5094892;28;20023;-66
2021/09/11 07:46:16;;;;;;;;;;;;;;;21.44;100.00;100841.47;5094783;28;19963;-67
2021/09/11 07:48:43;;;;;;;;;;;;;;;21.15;100.00;100853.41;5094314;28;19970;-66
2021/09/11 07:51:09;;;;;;;;;;;;;;;20.74;100.00;100855.59;5094713;28;19952;-67
2021/09/11 07:53:35;;;;;;;;;;;;;;;20.46;100.00;100873.78;5094332;28;19967;-66
2021/09/11 07:56:02;;;;;;;;;;;;;;;20.17;100.00;100879.00;5094408;28;19959;-66
2021/09/11 07:58:29;;;;;;;;;;;;;;;20.07;100.00;100892.19;5094560;28;20439;-66
2021/09/11 08:00:56;;;;;;;;;;;;;;;20.09;100.00;100892.00;5094902;28;19924;-66
2021/09/11 08:03:22;;;;;;;;;;;;;;;20.01;100.00;100885.47;5076285;28;20307;-66
2021/09/11 08:05:49;;;;;;;;;;;;;;;19.94;100.00;100891.94;5094434;28;19928;-66
2021/09/11 08:08:15;;;;;;;;;;;;;;;19.97;100.00;100886.88;5094301;28;19976;-66
2021/09/11 08:10:41;;;;;;;;;;;;;;;20.26;100.00;100887.19;5094361;28;20015;-66
2021/09/11 08:13:07;;;;;;;;;;;;;;;20.63;100.00;100888.25;5094024;28;19928;-66
2021/09/11 08:15:35;;;;;;;;;;;;;;;21.47;100.00;100881.66;5094395;28;20276;-66
2021/09/11 08:18:01;;;;;;;;;;;;;;;21.89;100.00;100875.38;5093816;28;20018;-66
2021/09/11 08:20:32;;;;;;;;;;;;;;;22.02;100.00;100865.50;5094254;28;19924;-66
2021/09/11 08:22:58;;;;;;;;;;;;;;;21.86;100.00;100864.72;5094113;28;20139;-66
2021/09/11 08:25:25;;;;;;;;;;;;;;;21.64;100.00;100874.88;5094149;28;20019;-66
2021/09/11 08:27:51;;;;;;;;;;;;;;;21.30;100.00;100867.19;5093837;28;19924;-66
2021/09/11 08:30:17;;;;;;;;;;;;;;;20.96;100.00;100882.44;5094022;28;19977;-66
2021/09/11 08:32:45;;;;;;;;;;;;;;;20.87;100.00;100882.53;5093765;28;19924;-66
2021/09/11 08:35:13;;;;;;;;;;;;;;;20.82;100.00;100890.50;5093414;28;20361;-66
2021/09/11 08:37:39;;;;;;;;;;;;;;;20.71;100.00;100894.59;5093652;28;19928;-66
2021/09/11 08:40:06;;;;;;;;;;;;;;;20.58;100.00;100895.19;5093999;28;19927;-66
2021/09/11 08:42:32;;;;;;;;;;;;;;;20.70;100.00;100898.38;5093555;28;19950;-66
2021/09/11 08:44:59;;;;;;;;;;;;;;;20.83;100.00;100905.16;5093726;28;20426;-66
2021/09/11 08:47:25;;;;;;;;;;;;;;;20.88;100.00;100887.00;5093466;28;19932;-66
2021/09/11 08:49:53;;;;;;;;;;;;;;;21.12;100.00;100890.53;5092085;28;20334;-66
2021/09/11 08:52:20;;;;;;;;;;;;;;;21.37;100.00;100888.31;5093707;28;20310;-66
2021/09/11 08:54:46;;;;;;;;;;;;;;;21.61;100.00;100888.25;5092057;28;19955;-66
2021/09/11 08:57:23;;;;;;;;;;;;;;;22.10;100.00;100887.50;5093269;28;20339;-66
2021/09/11 08:59:50;;;;;;;;;;;;;;;22.70;100.00;100881.66;5093371;28;19954;-66
2021/09/11 09:02:18;;;;;;;;;;;;;;;23.06;100.00;100880.63;5093445;28;19928;-66
2021/09/11 09:04:45;;;;;;;;;;;;;;;23.27;100.00;100876.13;5092970;28;19928;-66
2021/09/11 09:07:13;;;;;;;;;;;;;;;23.29;100.00;100877.63;5093623;28;20388;-66
2021/09/11 09:09:40;;;;;;;;;;;;;;;23.44;100.00;100874.72;5093171;28;19935;-66
2021/09/11 09:12:12;;;;;;;;;;;;;;;23.45;100.00;100879.19;5093368;28;19971;-66
2021/09/11 09:14:38;;;;;;;;;;;;;;;23.48;100.00;100878.78;5093386;28;19928;-66
2021/09/11 09:17:10;;;;;;;;;;;;;;;23.22;100.00;100879.47;5093005;28;20403;-66
2021/09/11 09:19:38;;;;;;;;;;;;;;;23.28;100.00;100888.91;5093351;28;20405;-66
2021/09/11 09:22:04;;;;;;;;;;;;;;;23.28;100.00;100880.59;5092951;28;20399;-66
2021/09/11 09:24:34;;;;;;;;;;;;;;;23.01;100.00;100883.16;5093311;28;19924;-66
2021/09/11 09:27:03;;;;;;;;;;;;;;;22.68;100.00;100894.88;5092877;28;20208;-66
2021/09/11 09:29:29;;;;;;;;;;;;;;;22.31;100.00;100894.09;5092738;28;20419;-66
2021/09/11 09:31:59;;;;;;;;;;;;;;;21.92;100.00;100892.63;5092953;28;19928;-66
2021/09/11 09:34:29;;;;;;;;;;;;;;;21.79;100.00;100904.38;5092739;28;20407;-66
2021/09/11 09:36:56;;;;;;;;;;;;;;;21.97;100.00;100906.72;5092617;28;19924;-66
2021/09/11 09:39:22;;;;;;;;;;;;;;;22.08;100.00;100900.66;5092524;28;20022;-66
2021/09/11 09:41:51;;;;;;;;;;;;;;;22.43;100.00;100906.34;5092765;28;19931;-65
2021/09/11 09:44:22;;;;;;;;;;;;;;;22.82;100.00;100893.91;5092450;28;19958;-66
2021/09/11 09:46:49;;;;;;;;;;;;;;;22.93;100.00;100889.72;5092441;28;19935;-66
2021/09/11 09:49:19;;;;;;;;;;;;;;;22.85;100.00;100885.19;5092335;28;20019;-66
2021/09/11 09:51:46;;;;;;;;;;;;;;;22.90;100.00;100896.53;5092472;28;20007;-66
2021/09/11 09:54:13;;;;;;;;;;;;;;;22.85;100.00;100895.41;5092568;28;19928;-65
2021/09/11 09:56:39;;;;;;;;;;;;;;;23.00;100.00;100889.78;5092232;28;20014;-65
2021/09/11 09:59:07;;;;;;;;;;;;;;;23.06;100.00;100891.72;5092495;28;20027;-66
2021/09/11 10:01:33;;;;;;;;;;;;;;;22.93;100.00;100891.63;5091967;28;20022;-66
2021/09/11 10:04:12;;;;;;;;;;;;;;;22.56;100.00;100889.88;5092611;28;20031;-67
2021/09/11 10:06:39;;;;;;;;;;;;;;;22.36;100.00;100898.00;5074102;28;20463;-66
2021/09/11 10:09:07;;;;;;;;;;;;;;;22.18;100.00;100892.03;5092105;28;20006;-66
2021/09/11 10:11:33;;;;;;;;;;;;;;;22.17;100.00;100895.88;5092594;28;19970;-65
2021/09/11 10:14:01;;;;;;;;;;;;;;;22.06;100.00;100894.47;5091976;28;20379;-65
2021/09/11 10:16:32;;;;;;;;;;;;;;;21.94;100.00;100893.28;5092221;28;20023;-66
2021/09/11 10:18:58;;;;;;;;;;;;;;;21.92;100.00;100892.63;5091535;28;20022;-66
2021/09/11 10:21:35;;;;;;;;;;;;;;;21.86;100.00;100883.19;5092085;28;20013;-66
2021/09/11 10:24:22;;;;;;;;;;;;;;;22.07;100.00;100893.41;5091732;28;19932;-65
2021/09/11 10:26:50;;;;;;;;;;;;;;;22.03;100.00;100892.97;5091699;28;20019;-66
2021/09/11 10:29:35;;;;;;;;;;;;;;;21.82;100.00;100891.03;5091463;28;19983;-65
2021/09/11 10:32:05;;;;;;;;;;;;;;;21.69;100.00;100901.94;5091606;28;19928;-66
2021/09/11 10:34:43;;;;;;;;;;;;;;;21.45;100.00;100895.66;5091988;28;19952;-65
2021/09/11 10:37:09;;;;;;;;;;;;;;;21.57;100.00;100894.13;5091479;28;19928;-66
2021/09/11 10:39:36;;;;;;;;;;;;;;;21.68;100.00;100900.22;5091816;28;19924;-65
2021/09/11 10:42:04;;;;;;;;;;;;;;;21.81;100.00;100894.00;5090409;28;21542;-65
2021/09/11 10:44:31;;;;;;;;;;;;;;;22.16;100.00;100892.22;5091820;28;19950;-66
2021/09/11 10:46:57;;;;;;;;;;;;;;;22.84;100.00;100886.25;5091251;28;20018;-65
2021/09/11 10:49:26;;;;;;;;;;;;;;;23.33;100.00;100869.75;5091402;28;19982;-65
2021/09/11 10:52:00;;;;;;;;;;;;;;;23.96;100.00;100865.94;5091530;28;19981;-65
2021/09/11 10:54:31;;;;;;;;;;;;;;;24.04;100.00;100861.06;5091289;28;19966;-65
2021/09/11 10:57:04;;;;;;;;;;;;;;;23.78;100.00;100853.50;5091376;28;19924;-65
2021/09/11 10:59:35;;;;;;;;;;;;;;;23.65;100.00;100867.31;5091093;28;19996;-65
2021/09/11 11:02:19;;;;;;;;;;;;;;;24.00;100.00;100856.16;5091405;28;20391;-65
2021/09/11 11:04:54;;;;;;;;;;;;;;;24.62;100.00;100848.53;5080678;28;20020;-65
2021/09/11 11:07:22;;;;;;;;;;;;;;;24.71;100.00;100849.16;5091311;28;20014;-65
2021/09/11 11:09:49;;;;;;;;;;;;;;;25.13;100.00;100855.25;5091289;28;20336;-65
2021/09/11 11:12:19;;;;;;;;;;;;;;;24.97;100.00;100844.63;5090476;28;20014;-65
2021/09/11 11:14:46;;;;;;;;;;;;;;;24.92;100.00;100849.97;5091064;28;20431;-65
2021/09/11 11:17:12;;;;;;;;;;;;;;;24.71;100.00;100843.63;5090966;28;19924;-65
2021/09/11 11:19:42;;;;;;;;;;;;;;;24.68;100.00;100842.13;5091027;28;19959;-65
2021/09/11 11:22:10;;;;;;;;;;;;;;;24.77;100.00;100836.34;5091137;28;19950;-65
2021/09/11 11:24:37;;;;;;;;;;;;;;;25.74;100.00;100831.72;5073194;28;20372;-65
2021/09/11 11:27:05;;;;;;;;;;;;;;;26.37;100.00;100823.59;5073004;28;20019;-65
2021/09/11 11:29:32;;;;;;;;;;;;;;;26.52;100.00;100829.69;5091162;28;19981;-65
2021/09/11 11:31:59;;;;;;;;;;;;;;;25.94;100.00;100824.34;5091147;28;19977;-65
2021/09/11 11:34:26;;;;;;;;;;;;;;;25.91;100.00;100822.88;5091124;28;19954;-65
2021/09/11 11:36:54;;;;;;;;;;;;;;;26.21;100.00;100828.63;5090497;28;20380;-65
2021/09/11 11:39:23;;;;;;;;;;;;;;;26.27;100.00;100829.69;5090786;28;19973;-65
2021/09/11 11:41:55;;;;;;;;;;;;;;;25.65;100.00;100821.09;5090978;28;20430;-65
2021/09/11 11:44:22;;;;;;;;;;;;;;;25.58;100.00;100820.28;5091005;28;19928;-66
2021/09/11 11:46:51;;;;;;;;;;;;;;;25.50;100.00;100807.50;5090621;28;19932;-65
2021/09/11 11:49:18;;;;;;;;;;;;;;;25.44;100.00;100806.47;5073035;28;20027;-65
2021/09/11 11:51:50;;;;;;;;;;;;;;;25.87;100.00;100816.03;5090814;28;20019;-65
2021/09/11 11:54:17;;;;;;;;;;;;;;;26.53;100.00;100811.03;5091015;28;20015;-65
2021/09/11 11:56:48;;;;;;;;;;;;;;;26.95;100.00;100802.94;5090572;28;19955;-65
2021/09/11 11:59:21;;;;;;;;;;;;;;;27.07;100.00;100797.41;5090882;28;20406;-65
2021/09/11 12:01:47;;;;;;;;;;;;;;;26.47;100.00;100798.91;5090608;28;19954;-65
2021/09/11 12:04:14;;;;;;;;;;;;;;;26.49;100.00;100799.50;5090763;28;19924;-65
2021/09/11 12:06:46;;;;;;;;;;;;;;;27.02;100.00;100794.50;5090904;28;20333;-66
2021/09/11 12:09:14;;;;;;;;;;;;;;;27.55;100.00;100796.63;5090595;28;20368;-65
2021/09/11 12:11:41;;;;;;;;;;;;;;;28.13;100.00;100785.91;5090981;28;19959;-65
2021/09/11 12:14:08;;;;;;;;;;;;;;;28.59;100.00;100793.69;5090550;28;20011;-65
2021/09/11 12:16:35;;;;;;;;;;;;;;;28.72;100.00;100787.88;5090861;28;19951;-66
2021/09/11 12:19:11;;;;;;;;;;;;;;;28.88;100.00;100798.28;5090435;28;19975;-66
2021/09/11 12:21:37;;;;;;;;;;;;;;;28.44;100.00;100796.97;5090805;28;19967;-66
2021/09/11 12:24:04;;;;;;;;;;;;;;;27.66;100.00;100796.88;5092907;28;20043;-65
2021/09/11 12:26:31;;;;;;;;;;;;;;;27.05;100.00;100802.38;5093795;28;20187;-65
2021/09/11 12:29:07;;;;;;;;;;;;;;;26.08;100.00;100802.88;5093828;28;19924;-65